Time;durP1;ratioP1;P1;durP2;ratioP2;P2;SDS_P1;SDS_P2;PMS_P1;PMS_P2;Temp;Humidity;BMP_temperature;BMP_pressure;BME280_temperature;BME280_humidity;BME280_pressure;Samples;Min_cycle;Max_cycle;Signal;HPM_P1;HPM_P2
2022/08/28 00:03:19;;;;;;;16.63;10.73;;;;;;;16.23;100.00;96557.09;10411031;28;20192;-72
2022/08/28 00:08:19;;;;;;;16.52;10.35;;;;;;;16.27;100.00;96565.44;10412733;28;20281;-73
2022/08/28 00:13:22;;;;;;;18.05;13.35;;;;;;;16.28;100.00;96559.16;10411931;28;20718;-73
2022/08/28 00:18:23;;;;;;;22.10;12.57;;;;;;;16.37;100.00;96567.69;10412102;28;20642;-74
2022/08/28 00:23:24;;;;;;;15.32;11.10;;;;;;;16.33;100.00;96569.94;10411571;28;20315;-74
2022/08/28 00:28:25;;;;;;;16.80;10.07;;;;;;;16.38;100.00;96567.50;10411320;28;20189;-74
2022/08/28 00:33:28;;;;;;;9.43;6.07;;;;;;;16.39;100.00;96574.44;10411798;28;20197;-74
2022/08/28 00:38:31;;;;;;;8.88;5.03;;;;;;;16.45;100.00;96582.56;10410935;28;20583;-74
2022/08/28 00:43:44;;;;;;;7.15;5.50;;;;;;;16.35;100.00;96573.19;10411154;28;20200;-74
2022/08/28 00:48:45;;;;;;;5.93;4.00;;;;;;;16.34;100.00;96578.66;10393332;28;20185;-74
2022/08/28 00:53:45;;;;;;;3.55;2.83;;;;;;;16.34;100.00;96590.09;10410730;28;20184;-74
2022/08/28 00:58:47;;;;;;;5.60;3.58;;;;;;;16.32;100.00;96580.69;10392143;28;20307;-74
2022/08/28 01:03:47;;;;;;;9.95;5.47;;;;;;;16.26;100.00;96576.19;10392103;28;20529;-74
2022/08/28 01:08:48;;;;;;;8.88;6.50;;;;;;;16.28;100.00;96576.81;10409773;28;20232;-74
2022/08/28 01:13:53;;;;;;;11.98;7.97;;;;;;;16.24;100.00;96573.75;10392741;28;20192;-73
2022/08/28 01:18:53;;;;;;;12.50;7.97;;;;;;;16.25;100.00;96580.69;10392660;28;20283;-73
2022/08/28 01:24:01;;;;;;;24.17;14.05;;;;;;;16.09;100.00;96581.78;10409356;28;20234;-73
2022/08/28 01:29:02;;;;;;;21.83;14.93;;;;;;;16.09;100.00;96586.28;10409739;28;20219;-73
2022/08/28 01:34:04;;;;;;;32.03;18.60;;;;;;;16.05;100.00;96599.88;10392195;28;20216;-73
2022/08/28 01:39:11;;;;;;;41.80;22.73;;;;;;;15.94;100.00;96589.84;10409617;28;20584;-73
2022/08/28 01:44:13;;;;;;;36.22;21.73;;;;;;;15.83;100.00;96598.28;10416510;28;20196;-73
2022/08/28 01:49:14;;;;;;;37.25;21.42;;;;;;;15.68;100.00;96604.47;10418097;28;20188;-73
2022/08/28 01:54:14;;;;;;;33.35;21.27;;;;;;;15.63;100.00;96613.97;10417499;28;20192;-73
2022/08/28 01:59:15;;;;;;;39.60;22.83;;;;;;;15.55;100.00;96604.34;10417476;28;20224;-72
2022/08/28 02:04:15;;;;;;;43.42;21.50;;;;;;;15.51;100.00;96605.72;10417388;28;20258;-73
2022/08/28 02:09:16;;;;;;;42.65;21.95;;;;;;;15.48;100.00;96596.38;10417496;28;20203;-73
2022/08/28 02:14:16;;;;;;;40.58;20.95;;;;;;;15.50;100.00;96602.28;10416721;28;20553;-73
2022/08/28 02:19:17;;;;;;;37.88;22.00;;;;;;;15.47;100.00;96591.31;10416881;28;20239;-73
2022/08/28 02:24:17;;;;;;;38.40;21.13;;;;;;;15.46;100.00;96592.31;10416445;28;20204;-73
2022/08/28 02:29:17;;;;;;;35.58;22.38;;;;;;;15.45;100.00;96590.66;10416415;28;20593;-73
2022/08/28 02:34:18;;;;;;;48.22;24.33;;;;;;;15.46;100.00;96592.31;10416118;28;20676;-73
2022/08/28 02:39:18;;;;;;;46.35;24.58;;;;;;;15.56;100.00;96597.25;10416243;28;20592;-73
2022/08/28 02:44:18;;;;;;;43.17;26.15;;;;;;;15.53;100.00;96579.97;10415790;28;20566;-73
2022/08/28 02:49:19;;;;;;;44.08;23.60;;;;;;;15.50;100.00;96583.81;10415809;28;20614;-73
2022/08/28 02:54:20;;;;;;;42.33;25.15;;;;;;;15.45;100.00;96580.09;10415412;28;20197;-73
2022/08/28 02:59:21;;;;;;;47.50;24.95;;;;;;;15.42;100.00;96583.94;10414973;28;20294;-73
2022/08/28 03:04:21;;;;;;;40.22;23.27;;;;;;;15.52;100.00;96579.13;10394917;28;20238;-73
2022/08/28 03:09:22;;;;;;;41.95;25.25;;;;;;;15.53;100.00;96574.69;10412028;28;20185;-73
2022/08/28 03:14:23;;;;;;;42.10;24.63;;;;;;;15.49;100.00;96570.78;10410896;28;20193;-73
2022/08/28 03:19:23;;;;;;;42.30;21.83;;;;;;;15.47;100.00;96568.34;10410522;28;20220;-73
2022/08/28 03:24:23;;;;;;;39.78;21.77;;;;;;;15.51;100.00;96560.84;10410461;28;20218;-73
2022/08/28 03:29:24;;;;;;;36.03;23.73;;;;;;;15.42;100.00;96560.19;10410381;28;20185;-74
2022/08/28 03:34:24;;;;;;;36.00;21.80;;;;;;;15.45;100.00;96567.72;10410042;28;20858;-74
2022/08/28 03:39:25;;;;;;;36.33;23.05;;;;;;;15.40;100.00;96559.56;10410242;28;20951;-74
2022/08/28 03:44:25;;;;;;;32.70;21.05;;;;;;;15.47;100.00;96559.63;10409510;28;20208;-73
2022/08/28 03:49:26;;;;;;;36.63;21.95;;;;;;;15.43;100.00;96555.72;10409692;28;20194;-73
2022/08/28 03:54:29;;;;;;;35.35;22.58;;;;;;;15.37;100.00;96553.84;10408859;28;20193;-74
2022/08/28 03:59:29;;;;;;;32.65;20.10;;;;;;;15.40;100.00;96561.38;10408126;28;20282;-73
2022/08/28 04:04:29;;;;;;;32.75;19.73;;;;;;;15.43;100.00;96577.66;10410530;28;20744;-74
2022/08/28 04:09:30;;;;;;;34.90;19.88;;;;;;;15.32;100.00;96580.81;10411430;28;20653;-74
2022/08/28 04:14:30;;;;;;;32.00;22.08;;;;;;;15.29;100.00;96586.47;10412190;28;20738;-73
2022/08/28 04:19:32;;;;;;;40.53;22.90;;;;;;;15.26;100.00;96585.00;10413281;28;20779;-74
2022/08/28 04:24:32;;;;;;;35.13;22.05;;;;;;;15.27;100.00;96599.84;10412065;28;20238;-74
2022/08/28 04:29:33;;;;;;;34.53;21.77;;;;;;;15.27;100.00;96591.94;10411946;28;20246;-73
2022/08/28 04:34:36;;;;;;;37.53;20.83;;;;;;;15.34;100.00;96591.97;10411559;28;20295;-74
2022/08/28 04:39:36;;;;;;;26.98;19.38;;;;;;;15.32;100.00;96597.44;10393681;28;20216;-74
2022/08/28 04:44:37;;;;;;;33.45;20.48;;;;;;;15.28;100.00;96598.84;10410961;28;20205;-74
2022/08/28 04:49:37;;;;;;;29.42;18.38;;;;;;;15.31;100.00;96600.28;10411331;28;20212;-74
2022/08/28 04:54:38;;;;;;;32.78;19.45;;;;;;;15.28;100.00;96600.66;10410789;28;20311;-74
2022/08/28 04:59:40;;;;;;;28.30;17.05;;;;;;;15.37;100.00;96594.25;10410408;28;20217;-74
2022/08/28 05:04:41;;;;;;;25.98;17.70;;;;;;;15.35;100.00;96596.28;10410486;28;20867;-73
2022/08/28 05:09:41;;;;;;;33.17;18.55;;;;;;;15.27;100.00;96596.41;10410718;28;20342;-73
2022/08/28 05:14:41;;;;;;;28.80;16.23;;;;;;;15.27;100.00;96586.66;10409634;28;20196;-73
2022/08/28 05:19:42;;;;;;;21.55;14.93;;;;;;;15.32;100.00;96596.66;10409964;28;20220;-74
2022/08/28 05:24:43;;;;;;;27.52;16.40;;;;;;;15.19;100.00;96597.34;10409829;28;20250;-74
2022/08/28 05:29:43;;;;;;;26.38;15.95;;;;;;;15.19;100.00;96600.00;10409611;28;20180;-74
2022/08/28 05:34:43;;;;;;;23.67;15.45;;;;;;;15.12;100.00;96605.19;10409697;28;20298;-74
2022/08/28 05:39:44;;;;;;;24.13;13.23;;;;;;;15.22;100.00;96615.44;10408960;28;20220;-74
2022/08/28 05:44:44;;;;;;;25.08;12.45;;;;;;;15.21;100.00;96621.72;10409144;28;20246;-74
2022/08/28 05:49:45;;;;;;;18.90;11.30;;;;;;;15.15;100.00;96625.09;10409795;28;20283;-74
2022/08/28 05:54:45;;;;;;;23.05;11.82;;;;;;;15.15;100.00;96631.19;10391444;28;20250;-74
2022/08/28 05:59:46;;;;;;;25.35;11.52;;;;;;;15.06;100.00;96636.78;10409236;28;20315;-73
2022/08/28 06:04:47;;;;;;;22.60;11.25;;;;;;;15.07;100.00;96638.41;10409020;28;20693;-74
2022/08/28 06:09:48;;;;;;;21.92;11.38;;;;;;;14.80;100.00;96646.84;10409192;28;20189;-73
2022/08/28 06:14:48;;;;;;;23.38;10.75;;;;;;;14.93;100.00;96648.81;10409110;28;20649;-73
2022/08/28 06:19:48;;;;;;;21.58;10.30;;;;;;;14.97;100.00;96642.16;10408668;28;20240;-74
2022/08/28 06:24:49;;;;;;;27.80;10.02;;;;;;;14.97;100.00;96641.34;10408195;28;20200;-73
2022/08/28 06:29:49;;;;;;;19.65;9.35;;;;;;;15.03;100.00;96656.44;10414174;28;20196;-73
2022/08/28 06:34:50;;;;;;;16.85;8.52;;;;;;;15.12;100.00;96646.59;10415171;28;20258;-74
2022/08/28 06:39:50;;;;;;;17.25;7.95;;;;;;;15.12;100.00;96644.75;10404923;28;20473;-73
2022/08/28 06:44:50;;;;;;;19.33;6.47;;;;;;;15.15;100.00;96638.31;10399523;28;20193;-73
2022/08/28 06:49:51;;;;;;;21.52;7.18;;;;;;;14.99;100.00;96652.53;10416080;28;20271;-73
2022/08/28 06:54:51;;;;;;;18.15;6.03;;;;;;;14.80;100.00;96656.56;10414850;28;20195;-73
2022/08/28 06:59:55;;;;;;;14.63;5.80;;;;;;;14.72;100.00;96664.59;10414223;28;20227;-74
2022/08/28 07:04:56;;;;;;;13.88;5.00;;;;;;;14.76;100.00;96650.03;10398553;28;20227;-73
2022/08/28 07:09:56;;;;;;;16.00;4.78;;;;;;;14.83;100.00;96650.94;10424049;28;20202;-74
2022/08/28 07:14:56;;;;;;;19.65;4.78;;;;;;;15.08;100.00;96646.13;10453015;28;20200;-74
2022/08/28 07:19:57;;;;;;;12.77;4.28;;;;;;;15.49;100.00;96650.00;10437907;28;20234;-74
2022/08/28 07:24:57;;;;;;;13.75;4.57;;;;;;;15.42;100.00;96647.31;10455651;28;20188;-73
2022/08/28 07:29:58;;;;;;;16.15;4.63;;;;;;;15.54;100.00;96644.16;10455493;28;20180;-74
2022/08/28 07:34:59;;;;;;;14.82;4.88;;;;;;;15.60;100.00;96656.59;10454752;28;20214;-74
2022/08/28 07:39:59;;;;;;;12.25;4.25;;;;;;;15.95;100.00;96644.31;10453883;28;20227;-74
2022/08/28 07:45:00;;;;;;;15.43;3.80;;;;;;;16.18;100.00;96643.25;10454768;28;20274;-74
2022/08/28 07:50:00;;;;;;;14.48;4.03;;;;;;;16.11;100.00;96642.38;10454780;28;20254;-74
2022/08/28 07:55:01;;;;;;;21.20;4.30;;;;;;;16.28;100.00;96649.03;10454134;28;20192;-74
2022/08/28 08:00:01;;;;;;;13.10;3.83;;;;;;;15.76;100.00;96651.06;10453953;28;20701;-73
2022/08/28 08:05:13;;;;;;;17.77;4.35;;;;;;;16.23;100.00;96656.69;10453676;28;20240;-73
2022/08/28 08:10:13;;;;;;;11.07;4.10;;;;;;;16.66;100.00;96643.31;10450827;28;20192;-73
2022/08/28 08:15:14;;;;;;;17.98;4.32;;;;;;;16.52;100.00;96645.09;10453574;28;20207;-74
2022/08/28 08:20:14;;;;;;;12.13;3.80;;;;;;;16.77;100.00;96652.53;10453433;28;20219;-74
2022/08/28 08:25:15;;;;;;;13.02;3.85;;;;;;;16.47;100.00;96644.84;10452411;28;20191;-73
2022/08/28 08:30:15;;;;;;;13.18;3.55;;;;;;;16.74;100.00;96651.09;10421271;28;20660;-74
2022/08/28 08:35:16;;;;;;;16.65;4.35;;;;;;;16.76;100.00;96659.63;10449707;28;20700;-73
2022/08/28 08:40:18;;;;;;;8.00;2.95;;;;;;;17.15;100.00;96643.31;10437033;28;20216;-72
2022/08/28 08:45:23;;;;;;;11.95;3.25;;;;;;;17.77;100.00;96642.16;10426719;28;20193;-72
2022/08/28 08:50:26;;;;;;;13.95;3.25;;;;;;;16.92;100.00;96671.75;10429151;28;20172;-73
2022/08/28 08:55:30;;;;;;;15.55;3.33;;;;;;;17.53;100.00;96669.25;10418197;28;20196;-73
2022/08/28 09:00:44;;;;;;;12.52;3.60;;;;;;;18.04;100.00;96667.88;10390219;28;20228;-73
2022/08/28 09:05:52;;;;;;;11.20;3.83;;;;;;;17.74;100.00;96673.56;10392542;28;20596;-74
2022/08/28 09:10:59;;;;;;;14.88;3.83;;;;;;;17.93;100.00;96664.00;10410448;28;20684;-73
2022/08/28 09:16:00;;;;;;;18.20;4.53;;;;;;;16.97;100.00;96665.88;10426739;28;20224;-73
2022/08/28 09:21:01;;;;;;;12.02;3.33;;;;;;;17.52;100.00;96665.81;10429884;28;20284;-74
2022/08/28 09:26:04;;;;;;;10.10;3.58;;;;;;;17.87;100.00;96667.44;10450019;28;20191;-74
2022/08/28 09:31:07;;;;;;;16.10;4.10;;;;;;;17.68;100.00;96661.94;10450793;28;20188;-73
2022/08/28 09:36:27;;;;;;;9.30;3.13;;;;;;;18.23;100.00;96661.75;10450716;28;20204;-74
2022/08/28 09:46:49;;;;;;;8.77;2.85;;;;;;;18.52;100.00;96667.63;10450614;28;20191;-74
2022/08/28 09:51:50;;;;;;;7.03;2.67;;;;;;;18.84;98.94;96655.25;10433134;28;20537;-73
2022/08/28 09:56:50;;;;;;;12.23;2.70;;;;;;;18.91;91.94;96647.28;10450359;28;20192;-73
2022/08/28 10:02:15;;;;;;;9.98;3.63;;;;;;;18.53;96.10;96667.41;10451025;28;20640;-73
2022/08/28 10:07:24;;;;;;;9.13;3.53;;;;;;;20.11;95.92;96667.00;10458393;28;20235;-73
2022/08/28 10:12:49;;;;;;;13.38;3.85;;;;;;;21.14;87.19;96635.38;10440215;28;20188;-73
2022/08/28 10:18:01;;;;;;;14.10;4.20;;;;;;;20.87;85.80;96634.91;10456655;28;20280;-73
2022/08/28 10:23:16;;;;;;;15.80;4.22;;;;;;;19.54;93.76;96688.22;10412027;28;20201;-73
2022/08/28 10:28:59;;;;;;;10.82;4.20;;;;;;;20.03;91.02;96680.56;10396650;28;20546;-73
2022/08/28 10:34:32;;;;;;;12.95;4.18;;;;;;;20.82;84.19;96635.56;10415492;28;20704;-72
2022/08/28 10:39:56;;;;;;;8.60;4.18;;;;;;;20.80;84.76;96653.63;10364354;28;20264;-73
2022/08/28 10:45:04;;;;;;;9.63;4.45;;;;;;;20.39;86.43;96666.50;10398470;28;20204;-72
2022/08/28 10:50:14;;;;;;;12.85;3.90;;;;;;;20.24;84.87;96653.56;10398346;28;20276;-72
2022/08/28 10:55:21;;;;;;;10.10;4.10;;;;;;;20.32;88.13;96676.41;10408299;28;20224;-72
2022/08/28 11:00:24;;;;;;;15.57;4.68;;;;;;;19.43;90.14;96682.59;10396850;28;20256;-72
2022/08/28 11:05:28;;;;;;;13.30;5.07;;;;;;;19.16;90.65;96676.59;10415128;28;20233;-72
2022/08/28 11:10:33;;;;;;;10.80;4.22;;;;;;;20.55;84.22;96645.69;10394533;28;20199;-73
2022/08/28 11:15:35;;;;;;;13.40;4.45;;;;;;;20.17;84.09;96655.50;10414863;28;20197;-72
2022/08/28 11:20:36;;;;;;;10.43;4.20;;;;;;;21.71;80.99;96643.78;10455759;28;20212;-72
2022/08/28 11:25:53;;;;;;;10.23;4.18;;;;;;;21.85;78.86;96630.25;10437408;28;20266;-72
2022/08/28 11:30:56;;;;;;;11.18;4.28;;;;;;;20.70;83.60;96672.78;10421322;28;20229;-72
2022/08/28 11:35:57;;;;;;;10.35;4.75;;;;;;;18.95;88.33;96701.59;10454645;28;20204;-73
2022/08/28 11:41:20;;;;;;;10.82;4.50;;;;;;;19.22;90.60;96704.97;10437304;28;20760;-72
2022/08/28 11:46:31;;;;;;;12.30;4.18;;;;;;;21.11;82.25;96651.81;10454478;28;20249;-72
2022/08/28 11:51:48;;;;;;;11.05;4.15;;;;;;;20.30;84.81;96673.97;10455010;28;20249;-72
2022/08/28 11:57:03;;;;;;;8.63;3.70;;;;;;;21.67;72.14;96572.47;10436227;28;20551;-72
2022/08/28 12:02:38;;;;;;;14.40;4.68;;;;;;;22.96;71.81;96611.56;10453882;28;20198;-72
2022/08/28 12:07:48;;;;;;;8.45;3.03;;;;;;;22.68;68.20;96577.66;10453208;28;20259;-72
2022/08/28 12:13:06;;;;;;;8.00;3.55;;;;;;;21.46;68.68;96568.50;10435831;28;20196;-73
2022/08/28 12:18:09;;;;;;;6.78;3.53;;;;;;;21.10;69.85;96591.56;10436131;28;20230;-73
2022/08/28 12:23:32;;;;;;;8.98;3.60;;;;;;;21.08;73.29;96646.94;10453318;28;20282;-73
2022/08/28 12:28:39;;;;;;;11.40;3.90;;;;;;;21.76;72.54;96635.13;10452541;28;20191;-72
2022/08/28 12:33:52;;;;;;;14.90;4.72;;;;;;;20.80;75.03;96651.78;10435034;28;20257;-73
2022/08/28 12:38:54;;;;;;;10.98;4.50;;;;;;;21.91;77.48;96682.66;10434711;28;20604;-72
2022/08/28 12:43:57;;;;;;;13.77;5.75;;;;;;;22.44;72.89;96662.31;10452347;28;20192;-72
2022/08/28 12:49:00;;;;;;;11.65;6.05;;;;;;;21.58;76.25;96680.50;10434742;28;20259;-72
2022/08/28 12:54:05;;;;;;;11.55;6.78;;;;;;;20.04;83.09;96730.06;10413927;28;20203;-72
2022/08/28 12:59:20;;;;;;;12.98;7.45;;;;;;;21.12;81.01;96706.72;10446651;28;20219;-73
2022/08/28 13:04:31;;;;;;;16.17;7.57;;;;;;;22.43;75.12;96656.19;10447289;28;20227;-73
2022/08/28 13:09:31;;;;;;;18.40;8.45;;;;;;;20.81;78.99;96681.88;10446944;28;20192;-72
2022/08/28 13:14:42;;;;;;;14.35;7.65;;;;;;;20.54;82.55;96713.28;10429569;28;20245;-73
2022/08/28 13:19:43;;;;;;;19.50;7.25;;;;;;;21.06;80.96;96684.44;10446815;28;20227;-73
2022/08/28 13:24:46;;;;;;;15.25;6.75;;;;;;;21.09;79.48;96675.22;10428527;28;20600;-73
2022/08/28 13:29:52;;;;;;;11.80;6.50;;;;;;;21.81;77.05;96661.09;10428770;28;20187;-73
2022/08/28 13:35:17;;;;;;;21.45;6.88;;;;;;;20.62;81.61;96684.50;10446214;28;20212;-72
2022/08/28 13:40:20;;;;;;;16.73;7.25;;;;;;;20.06;84.99;96707.53;10445592;28;20223;-73
2022/08/28 13:45:20;;;;;;;20.08;7.60;;;;;;;18.91;88.98;96710.19;10446575;28;20190;-72
2022/08/28 13:50:21;;;;;;;17.00;7.50;;;;;;;20.44;85.22;96679.16;10446472;28;20531;-72
2022/08/28 13:55:22;;;;;;;13.40;5.93;;;;;;;21.72;75.75;96617.94;10446520;28;20208;-72
2022/08/28 14:00:22;;;;;;;10.10;4.97;;;;;;;23.59;71.39;96600.13;10446008;28;20216;-73
2022/08/28 14:05:23;;;;;;;8.23;4.30;;;;;;;23.55;72.42;96633.75;10445575;28;20239;-73
2022/08/28 14:10:24;;;;;;;12.25;4.72;;;;;;;23.80;67.15;96578.00;10446175;28;20194;-72
2022/08/28 14:15:24;;;;;;;15.25;4.07;;;;;;;26.24;63.70;96581.16;10445973;28;20195;-72
2022/08/28 14:20:24;;;;;;;8.00;3.85;;;;;;;26.36;58.94;96518.38;10445437;28;20580;-73
2022/08/28 14:25:25;;;;;;;8.63;3.90;;;;;;;24.51;63.04;96555.97;10445482;28;20192;-72
2022/08/28 14:30:25;;;;;;;12.68;4.35;;;;;;;24.56;62.20;96545.34;10446347;28;20442;-73
2022/08/28 14:35:25;;;;;;;11.68;4.07;;;;;;;23.97;65.86;96587.94;10444883;28;20212;-72
2022/08/28 14:40:26;;;;;;;11.60;4.03;;;;;;;25.46;62.48;96566.38;10445473;28;20231;-72
2022/08/28 14:45:26;;;;;;;8.00;3.67;;;;;;;26.95;57.88;96526.09;10445037;28;20969;-72
2022/08/28 14:50:27;;;;;;;9.55;4.03;;;;;;;25.35;60.19;96540.53;10450027;28;20837;-72
2022/08/28 14:55:28;;;;;;;8.45;3.80;;;;;;;25.61;61.01;96557.66;10452136;28;20192;-71
2022/08/28 15:00:29;;;;;;;8.05;3.47;;;;;;;26.19;56.41;96508.66;10452456;28;20220;-71
2022/08/28 15:05:35;;;;;;;11.20;3.70;;;;;;;24.60;62.33;96582.38;10452104;28;20358;-72
2022/08/28 15:10:38;;;;;;;8.43;3.47;;;;;;;26.68;55.64;96507.50;10434076;28;20189;-71
2022/08/28 15:15:58;;;;;;;7.32;3.55;;;;;;;25.96;56.15;96507.97;10431879;28;20201;-71
2022/08/28 15:21:32;;;;;;;9.30;3.90;;;;;;;25.43;58.08;96523.16;10416785;28;20251;-71
2022/08/28 15:26:36;;;;;;;8.50;3.70;;;;;;;23.65;63.19;96565.19;10428393;28;20215;-71
2022/08/28 15:31:40;;;;;;;8.10;3.58;;;;;;;23.53;65.38;96604.59;10452008;28;20283;-72
2022/08/28 15:36:42;;;;;;;9.63;4.40;;;;;;;24.71;63.35;96602.84;10433163;28;20263;-72
2022/08/28 15:41:43;;;;;;;7.47;3.30;;;;;;;25.45;59.93;96553.22;10433534;28;20224;-72
2022/08/28 15:46:50;;;;;;;8.93;3.38;;;;;;;25.52;59.24;96543.09;10433353;28;20198;-74
2022/08/28 15:51:51;;;;;;;8.60;3.20;;;;;;;25.64;57.35;96516.88;10433126;28;20218;-72
2022/08/28 15:56:52;;;;;;;7.93;3.53;;;;;;;25.50;57.23;96510.34;10433023;28;20196;-71
2022/08/28 16:01:53;;;;;;;12.07;4.10;;;;;;;24.67;59.73;96548.97;10449329;28;20333;-72
2022/08/28 16:06:54;;;;;;;7.88;3.45;;;;;;;26.27;56.16;96531.50;10450184;28;20243;-73
2022/08/28 16:11:54;;;;;;;11.65;3.55;;;;;;;26.07;56.18;96516.91;10432632;28;20199;-73
2022/08/28 16:16:54;;;;;;;8.80;2.85;;;;;;;27.07;54.07;96516.97;10415147;28;20196;-72
2022/08/28 16:21:55;;;;;;;11.00;3.58;;;;;;;25.85;54.84;96495.56;10395702;28;20644;-72
2022/08/28 16:26:55;;;;;;;5.40;2.83;;;;;;;24.93;57.48;96511.69;10394228;28;20232;-72
2022/08/28 16:31:56;;;;;;;9.10;2.97;;;;;;;24.57;60.38;96567.56;10411806;28;20926;-72
2022/08/28 16:36:56;;;;;;;10.70;3.17;;;;;;;24.77;59.26;96558.97;10411453;28;20829;-72
2022/08/28 16:41:57;;;;;;;6.18;2.75;;;;;;;25.01;57.75;96523.84;10411406;28;20189;-71
2022/08/28 16:46:57;;;;;;;8.02;2.90;;;;;;;24.55;58.62;96535.66;10410973;28;20200;-71
2022/08/28 16:51:57;;;;;;;6.97;3.00;;;;;;;23.58;60.90;96551.19;10411299;28;20564;-72
2022/08/28 16:56:58;;;;;;;8.20;3.00;;;;;;;22.27;64.94;96592.78;10410636;28;20202;-72
2022/08/28 17:01:59;;;;;;;8.88;3.50;;;;;;;22.02;66.89;96617.88;10410869;28;20220;-72
2022/08/28 17:07:00;;;;;;;7.75;3.22;;;;;;;21.54;68.00;96624.97;10410058;28;20706;-72
2022/08/28 17:12:01;;;;;;;8.88;4.32;;;;;;;21.13;70.75;96657.72;10410273;28;20278;-72
2022/08/28 17:17:01;;;;;;;9.65;3.92;;;;;;;20.60;73.76;96681.25;10410385;28;20204;-72
2022/08/28 17:27:21;;;;;;;9.35;3.40;;;;;;;19.06;82.28;96716.06;10409863;28;20189;-72
2022/08/28 17:32:21;;;;;;;9.82;3.30;;;;;;;18.76;87.67;96718.38;10409945;28;20664;-73
2022/08/28 17:37:22;;;;;;;6.70;2.72;;;;;;;18.07;94.06;96725.78;10409928;28;20354;-72
2022/08/28 17:42:23;;;;;;;8.07;3.38;;;;;;;17.41;100.00;96722.81;10409293;28;20543;-73
2022/08/28 17:47:24;;;;;;;5.60;2.90;;;;;;;17.41;100.00;96719.34;10409384;28;20196;-73
2022/08/28 17:52:24;;;;;;;6.00;3.17;;;;;;;17.29;100.00;96735.81;10414086;28;20556;-72
2022/08/28 17:57:27;;;;;;;7.53;3.00;;;;;;;16.66;100.00;96743.00;10430677;28;20220;-72
2022/08/28 18:02:27;;;;;;;5.00;2.75;;;;;;;16.00;100.00;96746.78;10414605;28;20193;-72
2022/08/28 18:07:28;;;;;;;10.55;3.38;;;;;;;15.52;100.00;96758.69;10408892;28;20229;-73
2022/08/28 18:12:29;;;;;;;11.70;4.13;;;;;;;14.71;100.00;96763.97;10391831;28;20211;-72
2022/08/28 18:17:29;;;;;;;12.35;4.10;;;;;;;14.66;100.00;96776.88;10408701;28;20303;-72
2022/08/28 18:22:30;;;;;;;14.10;3.42;;;;;;;14.64;100.00;96784.16;10408225;28;20200;-73
2022/08/28 18:27:31;;;;;;;17.42;4.07;;;;;;;14.40;100.00;96793.91;10416428;28;20279;-72
2022/08/28 18:32:32;;;;;;;10.73;3.95;;;;;;;14.45;100.00;96802.06;10416530;28;20192;-73
2022/08/28 18:37:32;;;;;;;8.30;3.90;;;;;;;14.33;100.00;96807.97;10416042;28;20221;-72
2022/08/28 18:42:32;;;;;;;8.02;4.25;;;;;;;14.11;100.00;96820.19;10415576;28;20594;-72
2022/08/28 18:48:39;;;;;;;9.48;4.78;;;;;;;14.07;100.00;96835.50;10397749;28;20635;-72
2022/08/28 18:53:41;;;;;;;8.07;4.22;;;;;;;13.91;100.00;96839.06;10382355;28;20247;-72
2022/08/28 18:58:41;;;;;;;9.75;4.35;;;;;;;13.83;100.00;96842.56;10414709;28;20387;-72
2022/08/28 19:03:42;;;;;;;10.23;3.92;;;;;;;13.70;100.00;96851.03;10411920;28;20260;-72
2022/08/28 19:08:42;;;;;;;15.07;4.60;;;;;;;13.60;100.00;96855.69;10408001;28;20229;-73
2022/08/28 19:13:43;;;;;;;11.18;4.68;;;;;;;13.48;100.00;96857.88;10411712;28;20188;-72
2022/08/28 19:18:44;;;;;;;12.98;4.88;;;;;;;13.34;100.00;96867.31;10412117;28;20220;-73
2022/08/28 19:23:45;;;;;;;16.10;4.43;;;;;;;13.28;100.00;96869.78;10411056;28;20202;-72
2022/08/28 19:28:47;;;;;;;10.50;4.22;;;;;;;13.27;100.00;96873.41;10405601;28;20582;-72
2022/08/28 19:33:48;;;;;;;7.88;4.40;;;;;;;13.17;100.00;96874.41;10398222;28;20244;-72
2022/08/28 19:38:49;;;;;;;12.25;4.65;;;;;;;13.07;100.00;96875.59;10405204;28;20584;-72
2022/08/28 19:43:50;;;;;;;16.95;4.40;;;;;;;13.01;100.00;96877.06;10410388;28;20742;-72
2022/08/28 19:48:51;;;;;;;11.52;4.30;;;;;;;12.89;100.00;96879.22;10410379;28;20276;-72
2022/08/28 19:53:53;;;;;;;13.15;4.18;;;;;;;12.82;100.00;96881.72;10409468;28;20582;-72
2022/08/28 19:58:56;;;;;;;10.98;4.93;;;;;;;12.81;100.00;96895.03;10409884;28;20216;-72
2022/08/28 20:03:57;;;;;;;12.80;4.68;;;;;;;12.79;100.00;96894.38;10391974;28;20189;-72
2022/08/28 20:08:58;;;;;;;9.48;4.15;;;;;;;12.74;100.00;96897.50;10409042;28;20633;-72
2022/08/28 20:14:02;;;;;;;10.90;4.07;;;;;;;12.69;100.00;96888.47;10389541;28;20269;-72
2022/08/28 20:19:05;;;;;;;11.65;4.93;;;;;;;12.60;100.00;96898.16;10408952;28;20250;-73
2022/08/28 20:24:09;;;;;;;13.60;4.82;;;;;;;12.56;100.00;96900.28;10386229;28;20415;-72
2022/08/28 20:29:09;;;;;;;12.77;4.70;;;;;;;12.50;100.00;96895.69;10393750;28;20182;-72
2022/08/28 20:34:11;;;;;;;7.85;4.45;;;;;;;12.44;100.00;96901.59;10397895;28;20231;-73
2022/08/28 20:39:14;;;;;;;12.25;4.18;;;;;;;12.40;100.00;96901.09;10389940;28;20204;-70
2022/08/28 20:44:17;;;;;;;11.32;4.30;;;;;;;12.31;100.00;96909.94;10408983;28;20231;-72
2022/08/28 20:49:20;;;;;;;9.93;3.90;;;;;;;12.26;100.00;96915.69;10391412;28;20661;-72
2022/08/28 20:54:24;;;;;;;13.80;4.68;;;;;;;12.23;100.00;96917.81;10408790;28;20184;-72
2022/08/28 20:59:26;;;;;;;11.10;4.47;;;;;;;12.17;100.00;96915.84;10391206;28;20228;-72
2022/08/28 21:04:29;;;;;;;9.95;4.28;;;;;;;12.09;100.00;96922.72;10390902;28;20197;-72
2022/08/28 21:09:30;;;;;;;9.02;4.47;;;;;;;12.06;100.00;96930.91;10408751;28;20220;-73
2022/08/28 21:14:30;;;;;;;7.32;4.45;;;;;;;11.97;100.00;96926.63;10404075;28;20253;-72
2022/08/28 21:19:31;;;;;;;11.38;4.82;;;;;;;11.96;100.00;96932.88;10407973;28;20752;-72
2022/08/28 21:24:32;;;;;;;10.45;4.25;;;;;;;11.95;100.00;96939.09;10408091;28;20184;-72
2022/08/28 21:29:32;;;;;;;12.93;4.68;;;;;;;11.83;100.00;96938.53;10408248;28;20184;-72
2022/08/28 21:34:32;;;;;;;10.70;4.38;;;;;;;11.84;100.00;96937.56;10407352;28;20246;-73
2022/08/28 21:39:33;;;;;;;8.88;4.10;;;;;;;11.79;100.00;96945.06;10389888;28;20307;-73
2022/08/28 21:44:34;;;;;;;10.02;4.78;;;;;;;11.72;100.00;96942.25;10407424;28;20212;-73
2022/08/28 21:49:34;;;;;;;14.48;4.65;;;;;;;11.72;100.00;96939.66;10407867;28;20728;-73
2022/08/28 21:54:35;;;;;;;11.15;4.45;;;;;;;11.64;100.00;96946.66;10406903;28;20200;-73
2022/08/28 21:59:36;;;;;;;10.15;4.15;;;;;;;11.62;100.00;96948.63;10411959;28;20240;-73
2022/08/28 22:04:36;;;;;;;12.55;4.28;;;;;;;11.54;100.00;96947.59;10415394;28;20223;-74
2022/08/28 22:09:37;;;;;;;15.85;4.47;;;;;;;11.50;100.00;96950.69;10415492;28;20196;-73
2022/08/28 22:14:37;;;;;;;13.32;4.97;;;;;;;11.43;100.00;96945.25;10415752;28;20622;-72
2022/08/28 22:19:38;;;;;;;10.02;4.38;;;;;;;11.38;100.00;96958.84;10414791;28;20702;-72
2022/08/28 22:24:38;;;;;;;10.90;4.30;;;;;;;11.38;100.00;96958.03;10415286;28;20587;-73
2022/08/28 22:29:39;;;;;;;8.80;4.17;;;;;;;11.33;100.00;96955.88;10414961;28;20855;-73
2022/08/28 22:34:41;;;;;;;8.53;4.13;;;;;;;11.29;100.00;96962.38;10414290;28;20278;-73
2022/08/28 22:39:42;;;;;;;12.15;4.95;;;;;;;11.27;100.00;96961.72;10414572;28;20290;-73
2022/08/28 22:44:42;;;;;;;10.45;4.10;;;;;;;11.25;100.00;96961.03;10413580;28;20226;-73
2022/08/28 22:49:43;;;;;;;8.98;4.25;;;;;;;11.20;100.00;96958.88;10396848;28;20189;-73
2022/08/28 22:54:43;;;;;;;8.60;3.93;;;;;;;11.18;100.00;96952.13;10413317;28;20208;-73
2022/08/28 22:59:43;;;;;;;12.73;3.90;;;;;;;11.17;100.00;96956.56;10413731;28;20215;-73
2022/08/28 23:04:44;;;;;;;10.98;3.90;;;;;;;11.09;100.00;96958.31;10413343;28;20223;-73
2022/08/28 23:09:44;;;;;;;6.63;3.90;;;;;;;11.00;100.00;96955.63;10412802;28;20300;-73
2022/08/28 23:14:44;;;;;;;11.43;3.73;;;;;;;11.07;100.00;96955.84;10395357;28;21136;-73